Time;durP1;ratioP1;P1;durP2;ratioP2;P2;SDS_P1;SDS_P2;PMS_P1;PMS_P2;Temp;Humidity;BMP_temperature;BMP_pressure;BME280_temperature;BME280_humidity;BME280_pressure;Samples;Min_cycle;Max_cycle;Signal;HPM_P1;HPM_P2
2023/07/07 00:00:55;;;;;;;17.25;14.95;;;;;;;23.44;81.10;100316.55;1768103;80;21220;-55
2023/07/07 00:04:01;;;;;;;17.77;14.78;;;;;;;23.43;81.17;100307.34;1768012;80;21448;-55
2023/07/07 00:07:08;;;;;;;16.52;14.73;;;;;;;23.43;81.23;100318.52;1740435;81;21330;-55
2023/07/07 00:10:16;;;;;;;17.07;13.40;;;;;;;23.44;81.27;100322.13;1741625;81;21211;-55
2023/07/07 00:13:22;;;;;;;15.48;13.40;;;;;;;23.42;81.34;100327.16;1740484;81;21331;-54
2023/07/07 00:16:30;;;;;;;14.90;13.40;;;;;;;23.42;81.35;100329.96;1740512;81;21353;-54
2023/07/07 00:19:39;;;;;;;17.92;13.20;;;;;;;23.42;81.41;100333.58;1740599;81;21381;-54
2023/07/07 00:22:45;;;;;;;17.15;13.88;;;;;;;23.42;81.47;100337.77;1740512;81;21318;-55
2023/07/07 00:25:51;;;;;;;15.85;12.00;;;;;;;23.43;81.51;100345.61;1740503;82;21247;-55
2023/07/07 00:28:59;;;;;;;17.17;13.05;;;;;;;23.43;81.55;100342.81;1740984;81;21387;-55
2023/07/07 00:32:05;;;;;;;15.03;13.48;;;;;;;23.44;81.56;100350.94;1740573;81;21211;-55
2023/07/07 00:35:12;;;;;;;16.95;12.40;;;;;;;23.47;81.62;100348.16;1740450;81;21229;-53
2023/07/07 00:38:17;;;;;;;17.32;13.90;;;;;;;23.49;81.66;100347.36;1718716;81;21204;-54
2023/07/07 00:41:23;;;;;;;15.03;13.43;;;;;;;23.53;81.71;100360.55;1740487;82;21907;-54
2023/07/07 00:44:32;;;;;;;18.30;12.80;;;;;;;23.55;81.76;100380.70;1740534;81;21369;-54
2023/07/07 00:47:42;;;;;;;15.38;13.20;;;;;;;23.58;81.74;100426.84;1740688;82;21343;-55
2023/07/07 00:50:59;;;;;;;17.10;12.85;;;;;;;23.59;81.80;100437.75;1740589;82;21938;-54
2023/07/07 00:54:06;;;;;;;14.93;11.03;;;;;;;23.61;81.85;100432.77;1740479;81;21571;-56
2023/07/07 00:57:12;;;;;;;15.18;11.68;;;;;;;23.69;82.00;100459.98;1740510;82;21827;-54
2023/07/07 01:00:19;;;;;;;12.63;11.33;;;;;;;23.84;82.18;100464.36;1740480;81;21440;-54
2023/07/07 01:03:30;;;;;;;18.20;12.82;;;;;;;23.91;82.18;100467.28;1740746;81;21362;-54
2023/07/07 01:06:43;;;;;;;18.55;12.05;;;;;;;23.96;82.13;100453.91;1760906;78;21774;-55
2023/07/07 01:09:51;;;;;;;14.85;11.97;;;;;;;23.99;82.09;100461.80;1784977;79;21226;-55
2023/07/07 01:12:58;;;;;;;14.10;12.20;;;;;;;24.00;82.09;100464.34;1784947;80;21188;-55
2023/07/07 01:16:37;;;;;;;18.40;12.60;;;;;;;24.02;82.04;100459.88;1784993;80;21260;-54
2023/07/07 01:20:31;;;;;;;13.88;12.47;;;;;;;24.05;82.07;100459.34;1784966;79;21234;-55
2023/07/07 01:24:29;;;;;;;15.95;13.20;;;;;;;24.08;82.12;100458.28;1784988;79;21214;-56
2023/07/07 01:28:20;;;;;;;14.55;12.98;;;;;;;24.10;82.08;100472.00;1784979;80;21187;-57
2023/07/07 01:31:32;;;;;;;14.95;13.38;;;;;;;24.11;82.13;100473.68;1784974;80;21238;-54
2023/07/07 01:34:39;;;;;;;14.70;13.20;;;;;;;24.13;82.19;100471.48;1785010;79;21274;-55
2023/07/07 01:37:46;;;;;;;18.40;12.98;;;;;;;24.15;82.23;100486.05;1784988;80;21695;-55
2023/07/07 01:41:05;;;;;;;13.03;10.82;;;;;;;24.14;82.22;100479.61;1785014;79;21168;-55
2023/07/07 01:44:18;;;;;;;13.35;11.00;;;;;;;24.11;82.08;100479.28;1784972;79;21226;-56
2023/07/07 01:47:25;;;;;;;;;;;;;;;24.03;81.82;100483.94;1769829;80;21309;-54
2023/07/07 01:50:34;;;;;;;13.20;10.15;;;;;;;23.93;81.65;100483.22;1829356;77;20259;-55
2023/07/07 01:53:39;;;;;;;11.95;9.88;;;;;;;23.83;81.51;100489.25;1831938;76;21329;-56
2023/07/07 01:56:45;;;;;;;11.12;9.58;;;;;;;23.74;81.42;100495.01;1837736;78;21310;-55
2023/07/07 01:59:50;;;;;;;10.28;8.95;;;;;;;23.64;81.31;100495.71;1837658;76;21325;-55
2023/07/07 02:02:56;;;;;;;9.53;8.53;;;;;;;23.55;81.25;100499.48;1837648;77;21882;-55
2023/07/07 02:06:03;;;;;;;13.50;8.83;;;;;;;23.48;81.23;100513.36;1832711;77;21758;-56
2023/07/07 02:09:10;;;;;;;10.63;8.90;;;;;;;23.40;81.19;100512.40;1834624;77;21389;-54
2023/07/07 02:12:16;;;;;;;14.87;8.43;;;;;;;23.33;81.18;100512.57;1830395;77;21326;-55
2023/07/07 02:15:21;;;;;;;12.88;8.33;;;;;;;23.25;81.16;100499.54;1829222;77;21322;-54
2023/07/07 02:18:28;;;;;;;10.05;8.30;;;;;;;23.18;81.12;100498.89;1829165;77;21295;-54
2023/07/07 02:21:35;;;;;;;10.88;8.43;;;;;;;23.13;81.14;100504.39;1829239;77;21334;-54
2023/07/07 02:24:40;;;;;;;9.08;7.62;;;;;;;23.09;81.15;100499.85;1829167;77;21302;-55
2023/07/07 02:27:48;;;;;;;10.68;7.33;;;;;;;23.05;81.16;100508.46;1829242;78;21322;-55
2023/07/07 02:30:55;;;;;;;9.45;7.87;;;;;;;23.02;81.16;100503.92;1829168;77;21847;-55
2023/07/07 02:34:01;;;;;;;8.73;6.80;;;;;;;23.00;81.17;100498.59;1829195;77;21843;-54
2023/07/07 02:37:12;;;;;;;9.38;7.25;;;;;;;23.00;81.17;100497.20;1829134;78;21334;-54
2023/07/07 02:40:18;;;;;;;9.18;6.95;;;;;;;23.00;81.16;100497.20;1829135;77;21867;-55
2023/07/07 02:43:26;;;;;;;8.88;7.47;;;;;;;23.00;81.13;100507.52;1810651;77;21315;-55
2023/07/07 02:46:31;;;;;;;12.50;7.50;;;;;;;23.00;81.11;100496.34;1829183;77;21382;-55
2023/07/07 02:49:37;;;;;;;9.63;6.97;;;;;;;22.97;80.98;100503.30;1829212;77;21365;-54
2023/07/07 02:52:44;;;;;;;12.75;6.92;;;;;;;22.95;80.95;100512.47;1829137;78;21816;-54
2023/07/07 02:55:55;;;;;;;8.38;7.45;;;;;;;22.92;80.90;100504.60;1819993;78;21323;-55
2023/07/07 02:59:01;;;;;;;7.65;6.42;;;;;;;22.89;80.86;100496.73;1821367;77;21369;-56
2023/07/07 03:02:08;;;;;;;9.15;7.10;;;;;;;22.86;80.84;100497.24;1829192;78;21326;-55
2023/07/07 03:05:15;;;;;;;14.70;7.08;;;;;;;22.85;80.84;100497.50;1829093;77;21381;-55
2023/07/07 03:08:22;;;;;;;8.63;6.15;;;;;;;22.83;80.82;100493.56;1828388;77;21427;-54
2023/07/07 03:11:30;;;;;;;10.70;7.37;;;;;;;22.81;80.87;100492.11;1829409;77;21385;-55
2023/07/07 03:14:29;;;;;;;7.53;6.28;;;;;;;22.81;80.87;100487.38;1829445;77;21448;-55
2023/07/07 03:17:39;;;;;;;16.05;6.22;;;;;;;22.83;80.85;100487.13;1829449;78;21334;-54
2023/07/07 03:20:54;;;;;;;12.47;6.28;;;;;;;22.86;80.88;100494.45;1829433;77;21366;-54
2023/07/07 03:24:01;;;;;;;8.83;6.10;;;;;;;22.86;80.84;100495.84;1801519;79;22065;-54
2023/07/07 03:27:07;;;;;;;7.10;6.35;;;;;;;22.88;80.82;100492.80;1784922;79;21709;-55
2023/07/07 03:30:14;;;;;;;6.55;5.83;;;;;;;22.91;80.85;100487.53;1785243;79;21352;-54
2023/07/07 03:33:23;;;;;;;8.98;6.78;;;;;;;22.93;80.82;100482.55;1769083;79;21893;-55
2023/07/07 03:36:33;;;;;;;8.05;6.05;;;;;;;22.97;80.78;100491.27;1784306;79;21695;-57
2023/07/07 03:39:40;;;;;;;9.40;5.47;;;;;;;22.99;80.71;100490.48;1860427;77;21330;-54
2023/07/07 03:42:47;;;;;;;6.20;5.42;;;;;;;23.00;80.68;100475.40;1860484;77;21370;-55
2023/07/07 03:45:56;;;;;;;9.18;6.00;;;;;;;23.04;80.72;100469.62;1826747;78;21222;-55
2023/07/07 03:49:02;;;;;;;7.90;5.47;;;;;;;23.07;80.70;100472.72;1826282;77;21230;-55
2023/07/07 03:52:07;;;;;;;7.45;4.97;;;;;;;23.12;80.77;100483.16;1826267;78;22051;-55
2023/07/07 03:55:16;;;;;;;7.05;5.30;;;;;;;23.17;80.78;100476.22;1826369;78;21191;-56
2023/07/07 03:58:23;;;;;;;5.42;4.92;;;;;;;23.21;80.78;100476.84;1826448;77;21718;-56
2023/07/07 04:01:29;;;;;;;9.23;5.33;;;;;;;23.29;80.78;100484.83;1826675;78;21204;-56
2023/07/07 04:04:36;;;;;;;9.43;5.50;;;;;;;23.35;80.78;100467.61;1826939;77;21237;-56
2023/07/07 04:07:44;;;;;;;8.90;5.20;;;;;;;23.43;80.78;100469.96;1826919;77;21678;-56
2023/07/07 04:10:51;;;;;;;6.83;4.95;;;;;;;23.47;80.70;100479.51;1829966;78;21376;-56
2023/07/07 04:13:58;;;;;;;6.05;4.95;;;;;;;23.52;80.66;100469.80;1835315;77;21341;-56
2023/07/07 04:17:04;;;;;;;5.85;5.10;;;;;;;23.57;80.69;100469.88;1835391;78;21802;-57
2023/07/07 04:20:13;;;;;;;5.92;4.35;;;;;;;23.63;80.67;100454.86;1835367;77;21328;-56
2023/07/07 04:23:19;;;;;;;5.78;4.47;;;;;;;23.71;80.65;100467.53;1835369;78;21849;-56
2023/07/07 04:26:25;;;;;;;5.60;5.03;;;;;;;23.78;80.67;100455.62;1835383;77;21380;-57
2023/07/07 04:29:32;;;;;;;7.35;4.80;;;;;;;23.84;80.64;100451.23;1842694;77;21396;-54
2023/07/07 04:32:39;;;;;;;6.05;4.10;;;;;;;23.92;80.61;100452.72;1800865;78;21318;-55
2023/07/07 04:35:47;;;;;;;9.08;5.03;;;;;;;24.01;80.59;100459.02;1836047;77;21384;-56
2023/07/07 04:38:53;;;;;;;6.35;3.92;;;;;;;24.09;80.60;100457.16;1814324;77;21992;-57
2023/07/07 04:41:59;;;;;;;5.65;4.53;;;;;;;24.18;80.54;100465.95;1831257;78;21834;-56
2023/07/07 04:45:04;;;;;;;9.98;5.37;;;;;;;24.23;80.48;100464.03;1857302;77;21210;-56
2023/07/07 04:48:11;;;;;;;6.15;4.78;;;;;;;24.30;80.42;100464.69;1864122;77;21218;-56
2023/07/07 04:51:18;;;;;;;8.68;5.20;;;;;;;24.36;80.42;100448.77;1864284;77;21180;-57
2023/07/07 04:54:25;;;;;;;8.20;4.97;;;;;;;24.46;80.53;100449.74;1865219;77;21269;-57
2023/07/07 04:57:32;;;;;;;5.62;4.97;;;;;;;24.61;80.57;100464.45;1865573;75;21199;-56
2023/07/07 05:00:39;;;;;;;6.83;5.55;;;;;;;24.70;80.49;100448.33;1863663;75;21262;-56
2023/07/07 05:03:47;;;;;;;10.28;6.58;;;;;;;24.80;80.48;100444.20;1843647;77;21329;-53
2023/07/07 05:06:54;;;;;;;7.30;6.45;;;;;;;24.94;80.49;100440.41;1846532;77;21408;-54
2023/07/07 05:10:00;;;;;;;9.43;6.67;;;;;;;25.08;80.47;100463.47;1844810;75;21455;-54
2023/07/07 05:13:07;;;;;;;9.05;7.47;;;;;;;25.22;80.34;100451.80;1808297;77;21193;-54
2023/07/07 05:16:19;;;;;;;9.63;7.95;;;;;;;25.34;80.19;100459.50;1805714;78;21456;-54
2023/07/07 05:19:25;;;;;;;14.98;8.08;;;;;;;25.44;80.07;100470.75;1743604;81;21215;-54
2023/07/07 05:22:24;;;;;;;10.78;8.00;;;;;;;25.52;79.95;100465.49;1746733;80;21199;-54
2023/07/07 05:25:17;;;;;;;9.78;7.78;;;;;;;25.66;80.01;100471.44;1730205;81;21238;-55
2023/07/07 05:28:22;;;;;;;9.00;7.62;;;;;;;25.76;79.86;100476.56;1723677;82;21330;-55
2023/07/07 05:31:28;;;;;;;11.73;8.05;;;;;;;25.84;79.58;100484.47;1736443;81;21472;-55
2023/07/07 05:34:35;;;;;;;9.63;7.58;;;;;;;25.87;79.33;100476.91;1757908;80;21787;-54
2023/07/07 05:37:41;;;;;;;14.20;8.40;;;;;;;25.94;79.19;100481.69;1760965;81;21206;-54
2023/07/07 05:40:47;;;;;;;10.38;8.25;;;;;;;26.02;79.15;100476.16;1766208;80;21196;-54
2023/07/07 05:43:55;;;;;;;14.73;8.50;;;;;;;26.06;78.87;100474.48;1766247;80;21425;-54
2023/07/07 05:47:02;;;;;;;13.45;8.10;;;;;;;25.98;78.48;100477.78;1766582;81;21389;-53
2023/07/07 05:50:11;;;;;;;11.70;8.03;;;;;;;25.95;78.40;100484.80;1758452;80;21747;-54
2023/07/07 05:53:21;;;;;;;15.35;11.03;;;;;;;25.90;78.29;100486.17;1721733;82;21729;-54
2023/07/07 05:56:30;;;;;;;12.70;8.18;;;;;;;25.82;78.15;100485.84;1732686;82;21207;-53
2023/07/07 05:59:37;;;;;;;14.20;8.18;;;;;;;25.75;78.12;100481.88;1793993;79;21240;-55
2023/07/07 06:02:42;;;;;;;12.50;7.60;;;;;;;25.73;78.01;100477.11;1758814;80;21237;-54
2023/07/07 06:05:50;;;;;;;9.35;7.22;;;;;;;25.72;77.92;100485.80;1732406;81;21196;-55
2023/07/07 06:08:57;;;;;;;14.35;7.55;;;;;;;25.82;77.94;100488.64;1743667;81;21337;-56
2023/07/07 06:12:04;;;;;;;11.95;6.95;;;;;;;25.90;77.98;100488.98;1760202;78;21189;-52
2023/07/07 06:15:10;;;;;;;14.98;6.65;;;;;;;26.03;77.95;100487.11;1813527;77;21244;-54
2023/07/07 06:18:15;;;;;;;11.65;6.70;;;;;;;26.15;77.77;100484.05;1797438;79;21498;-55
2023/07/07 06:21:22;;;;;;;10.63;6.25;;;;;;;26.24;77.49;100483.81;1769846;80;21716;-54
2023/07/07 06:24:28;;;;;;;12.28;6.75;;;;;;;26.35;77.41;100472.90;1784074;79;21221;-54
2023/07/07 06:27:37;;;;;;;7.65;5.85;;;;;;;26.53;77.50;100479.38;1789585;77;21207;-53
2023/07/07 06:30:42;;;;;;;10.13;6.75;;;;;;;26.74;77.50;100472.70;1816207;77;21407;-54
2023/07/07 06:33:47;;;;;;;8.63;6.60;;;;;;;26.93;77.36;100465.97;1815640;78;21698;-57
2023/07/07 06:36:53;;;;;;;11.70;6.67;;;;;;;27.05;76.91;100471.58;1784836;77;21195;-54
2023/07/07 06:39:58;;;;;;;12.25;7.10;;;;;;;27.09;76.60;100465.70;1809155;79;21898;-55
2023/07/07 06:43:05;;;;;;;11.22;6.78;;;;;;;27.14;76.36;100465.70;1815703;78;21322;-56
2023/07/07 06:46:10;;;;;;;9.95;6.58;;;;;;;27.21;76.22;100464.01;1800910;78;21337;-55
2023/07/07 06:49:17;;;;;;;13.45;7.55;;;;;;;27.12;75.66;100470.75;1786246;79;21218;-55
2023/07/07 06:52:23;;;;;;;11.10;6.20;;;;;;;27.04;75.58;100467.65;1784202;80;21235;-53
2023/07/07 06:55:30;;;;;;;10.03;6.42;;;;;;;27.11;75.89;100464.86;1787364;79;21203;-55
2023/07/07 06:58:36;;;;;;;7.67;6.33;;;;;;;27.29;75.95;100459.25;1780080;78;21346;-59
2023/07/07 07:01:43;;;;;;;9.38;6.92;;;;;;;27.35;75.74;100460.34;1815417;78;21716;-58
2023/07/07 07:04:50;;;;;;;8.18;6.50;;;;;;;27.41;75.55;100452.20;1802329;79;21392;-56
2023/07/07 07:07:57;;;;;;;9.55;6.83;;;;;;;27.44;75.36;100453.58;1813893;78;21764;-56
2023/07/07 07:11:03;;;;;;;9.40;6.03;;;;;;;27.46;75.27;100452.75;1803135;79;21198;-57
2023/07/07 07:14:08;;;;;;;10.15;6.42;;;;;;;27.51;75.18;100449.34;1767475;79;21607;-55
2023/07/07 07:17:14;;;;;;;9.70;6.37;;;;;;;27.55;75.00;100446.25;1765632;79;21878;-55
2023/07/07 07:20:21;;;;;;;10.00;6.35;;;;;;;27.70;75.09;100450.99;1789960;80;21181;-59
2023/07/07 07:23:26;;;;;;;8.88;6.40;;;;;;;27.83;74.94;100451.20;1783982;80;21283;-58
2023/07/07 07:26:33;;;;;;;12.78;6.33;;;;;;;27.86;74.65;100442.19;1763231;80;21385;-58
2023/07/07 07:29:39;;;;;;;7.92;6.55;;;;;;;27.93;74.59;100453.73;1776500;80;21393;-58
2023/07/07 07:32:45;;;;;;;8.95;6.83;;;;;;;28.06;74.61;100454.52;1778341;80;21224;-58
2023/07/07 07:35:51;;;;;;;8.60;6.47;;;;;;;28.14;74.39;100451.95;1765183;79;21363;-59
2023/07/07 07:38:58;;;;;;;9.93;7.62;;;;;;;28.18;74.28;100452.22;1781791;79;21235;-58
2023/07/07 07:42:04;;;;;;;14.63;7.10;;;;;;;28.17;74.04;100444.89;1775416;80;21836;-59
2023/07/07 07:45:10;;;;;;;9.30;6.25;;;;;;;28.17;73.81;100437.85;1770699;80;21370;-61
2023/07/07 07:48:15;;;;;;;9.93;6.22;;;;;;;28.24;73.88;100446.84;1789001;78;21356;-58
2023/07/07 07:51:21;;;;;;;7.90;6.03;;;;;;;28.25;73.69;100437.24;1773180;80;21354;-59
2023/07/07 07:54:30;;;;;;;8.15;6.28;;;;;;;28.34;73.72;100439.72;1777395;80;21365;-57
2023/07/07 07:57:36;;;;;;;9.75;6.60;;;;;;;28.41;73.49;100431.80;1784086;78;21331;-57
2023/07/07 08:00:42;;;;;;;9.65;6.37;;;;;;;28.37;73.24;100424.48;1793180;80;21875;-57
2023/07/07 08:03:49;;;;;;;10.03;6.35;;;;;;;28.41;73.26;100426.16;1792850;80;21728;-56
2023/07/07 08:06:57;;;;;;;6.87;6.15;;;;;;;28.45;73.19;100421.61;1792727;80;21772;-56
2023/07/07 08:10:03;;;;;;;7.60;6.15;;;;;;;28.50;73.25;100411.76;1780663;80;21208;-56
2023/07/07 08:13:09;;;;;;;11.97;6.65;;;;;;;28.52;73.13;100411.76;1784411;79;21538;-56
2023/07/07 08:16:17;;;;;;;14.35;6.58;;;;;;;28.60;73.18;100410.28;1806738;78;21364;-55
2023/07/07 08:19:26;;;;;;;10.80;7.62;;;;;;;28.68;73.07;100405.43;1803145;78;21226;-55
2023/07/07 08:22:32;;;;;;;10.90;6.95;;;;;;;28.79;72.93;100412.11;1802130;79;21171;-56
2023/07/07 08:25:42;;;;;;;11.35;6.90;;;;;;;28.88;72.77;100407.51;1809311;78;21329;-56
2023/07/07 08:28:50;;;;;;;11.88;7.12;;;;;;;28.91;71.88;100408.88;1801216;78;21532;-53
2023/07/07 08:31:58;;;;;;;8.93;7.05;;;;;;;28.91;71.88;100408.88;1778553;78;21214;-53
2023/07/07 08:35:05;;;;;;;11.22;7.58;;;;;;;29.00;72.19;100406.53;1814705;77;21703;-52
2023/07/07 08:38:10;;;;;;;13.90;7.87;;;;;;;29.10;72.06;100411.27;1796405;79;21720;-52
2023/07/07 08:41:16;;;;;;;9.83;7.20;;;;;;;29.23;71.45;100404.38;1778201;79;21183;-53
2023/07/07 08:44:23;;;;;;;11.10;7.17;;;;;;;29.23;71.45;100404.38;1777531;80;21261;-53
2023/07/07 08:48:05;;;;;;;10.53;6.72;;;;;;;29.24;71.28;100406.61;1813074;78;21820;-53
2023/07/07 08:51:14;;;;;;;11.22;7.50;;;;;;;29.24;71.05;100398.15;1803153;79;21195;-54
2023/07/07 08:54:40;;;;;;;10.80;7.72;;;;;;;29.24;71.05;100398.15;1811992;77;21262;-54
2023/07/07 08:57:53;;;;;;;10.13;8.03;;;;;;;29.30;70.79;100398.39;1816314;78;21634;-55
2023/07/07 09:01:38;;;;;;;11.88;7.35;;;;;;;29.29;70.27;100381.17;1800888;78;21465;-55
2023/07/07 09:05:15;;;;;;;10.28;7.30;;;;;;;29.34;70.05;100381.12;1812636;79;21215;-55
2023/07/07 09:09:02;;;;;;;11.10;7.25;;;;;;;29.34;70.05;100381.12;1814470;78;21203;-56
2023/07/07 09:12:19;;;;;;;12.80;7.85;;;;;;;29.36;69.76;100384.50;1809559;79;21175;-55
2023/07/07 09:15:30;;;;;;;10.50;7.25;;;;;;;29.33;69.37;100390.73;1814269;77;21168;-55
2023/07/07 09:18:44;;;;;;;9.73;7.40;;;;;;;29.25;69.25;100387.16;1814465;79;21341;-56
2023/07/07 09:21:57;;;;;;;8.40;7.22;;;;;;;29.25;69.25;100387.16;1783525;79;21183;-55
2023/07/07 09:25:21;;;;;;;10.05;6.78;;;;;;;29.43;68.74;100378.50;1784051;80;21361;-56
2023/07/07 09:28:29;;;;;;;11.10;6.70;;;;;;;29.43;68.74;100378.50;1782079;80;21199;-55
2023/07/07 09:31:49;;;;;;;13.38;7.33;;;;;;;29.67;68.28;100367.48;1814255;78;21203;-56
2023/07/07 09:34:55;;;;;;;9.28;7.15;;;;;;;29.67;68.28;100367.48;1815867;78;21353;-56
2023/07/07 09:38:09;;;;;;;8.28;6.78;;;;;;;29.77;68.25;100360.88;1816658;78;21321;-57
2023/07/07 09:41:34;;;;;;;7.72;6.12;;;;;;;29.84;67.42;100350.06;1817749;78;21333;-56
2023/07/07 09:44:53;;;;;;;10.28;6.30;;;;;;;29.84;67.42;100350.06;1817382;77;21387;-56
2023/07/07 09:48:17;;;;;;;7.87;6.50;;;;;;;29.99;67.59;100347.86;1816969;78;21334;-55
2023/07/07 09:51:36;;;;;;;13.53;9.43;;;;;;;30.05;67.31;100335.34;1815646;78;21350;-55
2023/07/07 09:54:43;;;;;;;10.13;6.58;;;;;;;30.11;67.04;100342.58;1816249;78;21401;-56
2023/07/07 09:57:54;;;;;;;9.93;7.70;;;;;;;30.22;66.86;100338.48;1798000;79;21353;-55
2023/07/07 10:01:07;;;;;;;11.88;6.00;;;;;;;30.26;66.56;100328.84;1806447;77;21199;-56
2023/07/07 10:04:24;;;;;;;7.15;5.67;;;;;;;30.37;66.29;100325.55;1794049;79;21230;-57
2023/07/07 10:07:31;;;;;;;7.15;5.12;;;;;;;30.42;65.81;100318.41;1799494;79;21329;-57
2023/07/07 10:10:38;;;;;;;13.05;5.90;;;;;;;30.35;65.38;100312.30;1790429;78;22013;-57
2023/07/07 10:13:45;;;;;;;7.95;5.62;;;;;;;30.39;65.24;100313.38;1831178;76;21749;-58
2023/07/07 10:17:17;;;;;;;10.88;5.55;;;;;;;30.45;65.09;100312.13;1835641;77;21282;-57
2023/07/07 10:20:24;;;;;;;12.45;5.90;;;;;;;30.53;64.95;100314.26;1828384;77;21349;-57
2023/07/07 10:23:30;;;;;;;10.75;6.62;;;;;;;30.64;64.69;100300.21;1770476;81;21364;-58
2023/07/07 10:26:35;;;;;;;10.20;6.70;;;;;;;30.73;64.24;100299.50;1787810;79;21327;-58
2023/07/07 10:29:43;;;;;;;9.65;6.00;;;;;;;30.80;64.30;100284.40;1792892;80;21212;-56
2023/07/07 10:32:51;;;;;;;9.63;6.40;;;;;;;30.91;64.25;100285.32;1792023;78;21208;-57
2023/07/07 10:35:57;;;;;;;9.93;6.25;;;;;;;31.08;64.23;100279.88;1774882;79;21508;-58
2023/07/07 10:39:06;;;;;;;9.48;6.70;;;;;;;31.25;64.06;100273.61;1793151;80;21246;-55
2023/07/07 10:42:14;;;;;;;8.45;6.20;;;;;;;31.38;63.74;100272.80;1792850;80;21724;-57
2023/07/07 10:45:19;;;;;;;10.40;6.33;;;;;;;31.50;63.56;100271.11;1792844;80;21886;-57
2023/07/07 10:48:27;;;;;;;9.18;6.72;;;;;;;31.68;63.44;100270.72;1792460;80;21628;-56
2023/07/07 10:51:56;;;;;;;10.28;6.17;;;;;;;31.86;63.18;100265.50;1791337;80;21165;-57
2023/07/07 10:55:27;;;;;;;9.40;6.22;;;;;;;31.92;62.65;100269.91;1774034;79;21549;-57
2023/07/07 10:58:52;;;;;;;6.50;5.87;;;;;;;31.91;62.00;100254.05;1789374;78;21186;-58
2023/07/07 11:02:06;;;;;;;9.55;5.83;;;;;;;31.91;61.72;100253.48;1778062;78;21206;-55
2023/07/07 11:05:40;;;;;;;8.35;6.12;;;;;;;31.95;61.51;100257.94;1763839;80;21715;-57
2023/07/07 11:09:15;;;;;;;8.75;5.95;;;;;;;32.09;61.51;100253.63;1770572;80;21769;-57
2023/07/07 11:12:42;;;;;;;9.55;7.58;;;;;;;32.21;61.00;100258.13;1762303;79;21215;-57
2023/07/07 11:16:07;;;;;;;6.30;5.70;;;;;;;32.25;60.74;100243.02;1792322;80;21675;-56
2023/07/07 11:19:35;;;;;;;8.38;5.25;;;;;;;32.33;60.46;100249.33;1799516;78;21187;-57
2023/07/07 11:23:27;;;;;;;8.10;5.95;;;;;;;32.45;60.27;100249.60;1779610;78;21210;-56
2023/07/07 11:26:43;;;;;;;10.32;6.90;;;;;;;32.59;59.94;100250.35;1795378;80;21366;-56
2023/07/07 11:30:18;;;;;;;7.37;5.20;;;;;;;32.72;59.61;100242.34;1795565;79;21243;-56
2023/07/07 11:33:45;;;;;;;11.35;5.33;;;;;;;32.87;59.27;100246.16;1810656;77;21221;-57
2023/07/07 11:37:17;;;;;;;7.87;4.65;;;;;;;33.01;58.86;100241.84;1759978;79;21191;-57
2023/07/07 11:40:59;;;;;;;6.80;4.42;;;;;;;33.10;58.34;100236.46;1811094;78;21195;-54
2023/07/07 11:44:27;;;;;;;7.62;4.70;;;;;;;33.14;57.77;100230.37;1815621;78;21727;-56
2023/07/07 11:48:07;;;;;;;12.23;4.50;;;;;;;33.16;57.27;100230.89;1805705;78;21873;-56
2023/07/07 11:51:26;;;;;;;7.05;4.50;;;;;;;33.19;56.90;100228.80;1798103;77;21159;-55
2023/07/07 11:54:57;;;;;;;4.87;3.45;;;;;;;33.21;56.34;100225.64;1766087;80;21203;-56
2023/07/07 11:58:16;;;;;;;7.58;3.65;;;;;;;33.19;55.88;100218.88;1858644;75;21703;-56
2023/07/07 12:01:32;;;;;;;5.78;3.75;;;;;;;33.22;55.59;100223.08;1826067;77;21211;-55
2023/07/07 12:04:43;;;;;;;10.60;3.65;;;;;;;33.31;55.24;100223.92;1849478;76;21167;-54
2023/07/07 12:07:57;;;;;;;5.55;3.52;;;;;;;33.39;54.85;100224.53;1811411;79;21358;-55
2023/07/07 12:11:06;;;;;;;8.78;3.62;;;;;;;33.41;54.34;100209.47;1814676;77;21286;-56
2023/07/07 12:14:24;;;;;;;6.17;3.60;;;;;;;33.39;53.86;100207.50;1808252;78;21361;-54
2023/07/07 12:17:36;;;;;;;9.90;3.65;;;;;;;33.43;53.57;100211.36;1783224;79;21846;-55
2023/07/07 12:20:46;;;;;;;6.67;3.77;;;;;;;33.48;53.17;100201.84;1769680;80;21379;-57
2023/07/07 12:24:24;;;;;;;6.10;3.45;;;;;;;33.51;52.79;100208.31;1790379;80;21354;-55
2023/07/07 12:27:35;;;;;;;7.55;4.25;;;;;;;33.56;52.46;100202.45;1765358;80;21876;-54
2023/07/07 12:30:48;;;;;;;5.92;4.17;;;;;;;33.59;51.93;100210.30;1789343;78;21362;-54
2023/07/07 12:33:55;;;;;;;7.53;5.42;;;;;;;33.57;51.52;100209.81;1788826;80;21311;-56
2023/07/07 12:37:03;;;;;;;9.05;4.20;;;;;;;33.64;51.25;100207.30;1766473;80;21169;-55
2023/07/07 12:40:21;;;;;;;6.50;3.58;;;;;;;33.71;50.85;100205.66;1776867;79;21342;-53
2023/07/07 12:43:51;;;;;;;5.28;3.30;;;;;;;33.76;50.47;100204.05;1776895;80;21776;-56
2023/07/07 12:46:58;;;;;;;8.43;3.72;;;;;;;33.76;49.97;100202.63;1792472;78;21343;-55
2023/07/07 12:50:09;;;;;;;7.92;3.77;;;;;;;33.68;49.41;100197.78;1792315;78;21410;-57
2023/07/07 12:53:33;;;;;;;5.85;3.35;;;;;;;33.60;49.16;100208.58;1792130;79;21947;-58
2023/07/07 12:56:39;;;;;;;7.62;3.50;;;;;;;33.56;48.87;100203.87;1790051;79;21188;-56
2023/07/07 12:59:47;;;;;;;7.10;3.08;;;;;;;33.60;48.69;100197.80;1743436;81;21258;-55
2023/07/07 13:03:09;;;;;;;7.85;3.62;;;;;;;33.61;48.46;100196.61;1763473;80;21215;-57
2023/07/07 13:06:40;;;;;;;6.65;2.98;;;;;;;33.60;48.18;100194.38;1776425;80;21421;-55
2023/07/07 13:09:57;;;;;;;7.40;3.47;;;;;;;33.53;47.82;100181.81;1765010;80;21224;-57
2023/07/07 13:13:09;;;;;;;8.78;3.60;;;;;;;33.48;47.65;100187.08;1761882;80;21188;-57
2023/07/07 13:16:18;;;;;;;7.45;3.45;;;;;;;33.45;47.33;100183.48;1745250;81;21311;-55
2023/07/07 13:19:23;;;;;;;6.67;4.30;;;;;;;33.35;47.08;100178.93;1762174;80;21227;-56
2023/07/07 13:22:33;;;;;;;5.75;3.35;;;;;;;33.29;46.88;100178.84;1791964;78;21191;-56
2023/07/07 13:25:40;;;;;;;10.43;3.67;;;;;;;33.16;46.70;100172.70;1812087;79;21408;-56
2023/07/07 13:28:47;;;;;;;7.70;3.37;;;;;;;33.14;46.69;100164.28;1798340;78;21545;-57
2023/07/07 13:31:54;;;;;;;6.90;3.33;;;;;;;33.14;46.49;100158.01;1798862;79;21442;-57
2023/07/07 13:35:00;;;;;;;10.05;4.10;;;;;;;33.08;46.29;100155.08;1814000;78;21715;-56
2023/07/07 13:38:15;;;;;;;8.20;3.45;;;;;;;33.06;46.30;100154.56;1815837;78;21924;-54
2023/07/07 13:41:22;;;;;;;7.85;3.42;;;;;;;33.07;46.10;100149.73;1816360;78;21377;-57
2023/07/07 13:44:29;;;;;;;6.87;3.50;;;;;;;33.06;45.97;100148.08;1816801;77;21334;-57
2023/07/07 13:47:35;;;;;;;4.12;3.17;;;;;;;33.08;45.83;100147.14;1815855;77;21400;-54
2023/07/07 13:50:43;;;;;;;5.10;3.33;;;;;;;33.11;45.74;100148.73;1816055;78;21372;-54
2023/07/07 13:53:50;;;;;;;6.90;3.15;;;;;;;33.17;45.71;100143.16;1816649;77;21404;-54
2023/07/07 13:57:03;;;;;;;8.85;3.70;;;;;;;33.23;45.56;100148.95;1816828;78;21325;-55
2023/07/07 14:00:10;;;;;;;5.70;3.62;;;;;;;33.29;45.36;100151.88;1816914;77;21334;-55
2023/07/07 14:03:23;;;;;;;10.85;3.47;;;;;;;33.36;45.15;100149.36;1817648;77;21219;-55
2023/07/07 14:06:30;;;;;;;7.42;3.87;;;;;;;33.34;44.94;100153.71;1816596;77;21862;-55
2023/07/07 14:09:49;;;;;;;6.50;3.62;;;;;;;33.25;44.72;100146.59;1816206;77;21906;-54
2023/07/07 14:12:54;;;;;;;6.83;3.58;;;;;;;33.19;44.71;100146.50;1816692;78;21318;-55
2023/07/07 14:16:14;;;;;;;9.05;3.45;;;;;;;33.20;44.65;100145.36;1813882;78;21910;-55
2023/07/07 14:19:28;;;;;;;6.17;3.83;;;;;;;33.23;44.62;100145.27;1832262;77;21369;-54
2023/07/07 14:22:37;;;;;;;10.20;4.30;;;;;;;33.20;44.50;100153.03;1837481;77;21186;-54
2023/07/07 14:25:48;;;;;;;7.55;4.00;;;;;;;33.23;44.49;100151.79;1839343;76;21167;-55
2023/07/07 14:28:55;;;;;;;6.92;3.50;;;;;;;33.26;44.43;100145.45;1838668;76;21734;-55
2023/07/07 14:32:10;;;;;;;7.15;3.80;;;;;;;33.36;44.41;100141.45;1838709;78;21178;-55
2023/07/07 14:35:34;;;;;;;13.55;4.00;;;;;;;33.42;44.37;100133.05;1847346;76;21713;-54
2023/07/07 14:38:44;;;;;;;6.53;4.35;;;;;;;33.45;44.23;100138.64;1861157;77;21203;-55
2023/07/07 14:41:51;;;;;;;8.03;3.83;;;;;;;33.53;44.28;100133.55;1861982;77;21348;-56
2023/07/07 14:45:00;;;;;;;8.90;3.75;;;;;;;33.54;44.16;100130.38;1860427;75;21909;-54